TimeEST,TemperatureF,Dew PointF,Humidity,Sea Level PressureIn,VisibilityMPH,Wind Direction,Wind SpeedMPH,Gust SpeedMPH,PrecipitationIn,Events,Conditions,WindDirDegrees,DateUTC
12:05 AM,17.6,12.2,79,29.88,3.0,West,15.0,23.0,0.00,Snow,Light Snow,260,2014-02-26 05:05:00
12:12 AM,17.6,12.2,79,29.88,6.0,West,11.5,21.9,0.00,,Haze,260,2014-02-26 05:12:00
12:28 AM,17.6,12.2,79,29.88,1.8,West,8.1,-,0.00,Snow,Light Snow,280,2014-02-26 05:28:00
12:32 AM,17.6,12.2,79,29.88,0.5,WNW,10.4,-,0.00,Fog-Snow,Snow,290,2014-02-26 05:32:00
12:43 AM,17.6,12.2,79,29.88,1.0,West,11.5,-,0.00,Snow,Light Snow,280,2014-02-26 05:43:00
12:53 AM,17.1,10.9,77,29.95,3.0,West,10.4,18.4,0.00,Snow,Light Snow,270,2014-02-26 05:53:00
1:09 AM,17.6,10.4,73,29.87,1.8,West,10.4,-,0.00,Snow,Light Snow,270,2014-02-26 06:09:00
1:22 AM,15.8,10.4,79,29.87,2.0,West,9.2,-,0.00,Snow,Light Snow,270,2014-02-26 06:22:00
1:40 AM,15.8,10.4,79,29.87,1.8,West,10.4,17.3,0.00,Snow,Light Snow,270,2014-02-26 06:40:00
1:53 AM,16.0,10.9,81,29.94,1.8,West,10.4,-,0.00,Snow,Light Snow,270,2014-02-26 06:53:00
2:10 AM,15.8,10.4,79,29.87,0.5,WNW,9.2,-,0.00,Snow,Snow,290,2014-02-26 07:10:00
2:13 AM,15.8,10.4,79,29.87,0.2,NW,16.1,26.5,0.00,Fog-Snow,Heavy Snow,310,2014-02-26 07:13:00
2:30 AM,12.2,6.8,79,29.88,0.8,NW,11.5,24.2,0.00,Snow,Light Snow,310,2014-02-26 07:30:00
2:48 AM,12.2,6.8,79,29.88,0.8,NW,12.7,20.7,0.00,Snow,Light Snow,310,2014-02-26 07:48:00
2:53 AM,12.0,6.1,77,29.95,0.8,NW,13.8,23.0,0.00,Snow,Light Snow,310,2014-02-26 07:53:00
3:04 AM,10.4,3.2,73,29.88,1.5,WNW,13.8,21.9,0.00,Snow,Light Snow,300,2014-02-26 08:04:00
3:20 AM,10.4,1.4,67,29.88,2.5,NW,11.5,23.0,0.00,Snow,Light Snow,310,2014-02-26 08:20:00
3:37 AM,10.4,1.4,67,29.88,4.0,NW,11.5,21.9,0.00,,Haze,310,2014-02-26 08:37:00
3:53 AM,10.0,1.0,67,29.96,10.0,NW,11.5,18.4,0.00,,Overcast,310,2014-02-26 08:53:00
4:53 AM,8.1,-0.0,70,29.97,8.0,NW,5.8,-,N/A,,Overcast,310,2014-02-26 09:53:00
5:05 AM,8.6,-0.4,67,29.89,10.0,NW,6.9,-,N/A,,Overcast,310,2014-02-26 10:05:00
5:40 AM,6.8,1.4,79,29.91,2.0,WNW,5.8,-,0.00,Snow,Light Snow,300,2014-02-26 10:40:00
5:53 AM,7.0,1.9,80,29.99,1.8,West,4.6,-,0.00,Snow,Light Snow,280,2014-02-26 10:53:00
6:07 AM,6.8,1.4,79,29.91,2.0,West,3.5,-,0.00,Snow,Light Snow,280,2014-02-26 11:07:00
6:16 AM,8.6,3.2,79,29.92,1.2,West,4.6,-,0.00,Snow,Light Snow,280,2014-02-26 11:16:00
6:35 AM,6.8,3.2,85,29.92,3.0,West,4.6,-,0.00,Snow,Light Snow,270,2014-02-26 11:35:00
6:50 AM,6.8,1.4,79,29.92,2.0,WNW,3.5,-,0.00,Snow,Light Snow,300,2014-02-26 11:50:00
6:53 AM,7.0,1.9,80,30.00,2.5,Calm,Calm,-,0.00,Snow,Light Snow,0,2014-02-26 11:53:00
7:02 AM,6.8,1.4,79,29.93,4.0,WNW,4.6,-,0.00,,Haze,290,2014-02-26 12:02:00
7:14 AM,6.8,1.4,79,29.93,1.8,WNW,8.1,-,0.00,Snow,Light Snow,300,2014-02-26 12:14:00
7:39 AM,6.8,1.4,79,29.95,2.5,West,6.9,-,0.00,,Haze,270,2014-02-26 12:39:00
7:49 AM,6.8,1.4,79,29.95,0.8,West,4.6,-,0.00,Snow,Light Snow,270,2014-02-26 12:49:00
7:53 AM,7.0,1.9,80,30.03,0.8,West,4.6,-,0.00,Snow,Light Snow,280,2014-02-26 12:53:00
8:13 AM,6.8,1.4,79,29.95,2.0,West,4.6,-,0.00,,Haze,270,2014-02-26 13:13:00
8:26 AM,8.6,1.4,73,29.96,1.5,West,6.9,-,0.00,Snow,Light Snow,270,2014-02-26 13:26:00
8:39 AM,8.6,1.4,73,29.97,2.5,West,6.9,-,0.00,,Haze,280,2014-02-26 13:39:00
8:53 AM,8.1,1.0,73,30.05,1.8,West,9.2,-,0.00,Snow,Light Snow,270,2014-02-26 13:53:00
9:06 AM,8.6,1.4,73,29.98,0.2,WNW,10.4,-,0.00,Snow,Heavy Snow,300,2014-02-26 14:06:00
9:13 AM,8.6,3.2,79,29.98,0.2,NW,10.4,-,0.00,Snow,Heavy Snow,320,2014-02-26 14:13:00
9:20 AM,8.6,3.2,79,29.99,0.2,WNW,8.1,-,0.00,Snow,Heavy Snow,300,2014-02-26 14:20:00
9:26 AM,8.6,1.4,73,29.98,1.0,Variable,5.8,-,0.00,Snow,Light Snow,0,2014-02-26 14:26:00
9:30 AM,8.6,1.4,73,29.99,3.0,WNW,11.5,-,0.00,,Haze,300,2014-02-26 14:30:00
9:44 AM,8.6,-0.4,67,29.99,4.0,NW,8.1,-,0.00,,Haze,320,2014-02-26 14:44:00
9:53 AM,8.1,-0.9,67,30.08,5.0,West,11.5,17.3,0.00,,Haze,270,2014-02-26 14:53:00
10:40 AM,8.6,-0.4,67,30.00,1.8,WNW,10.4,16.1,0.00,Snow,Light Snow,300,2014-02-26 15:40:00
10:47 AM,8.6,-0.4,67,30.00,3.0,WNW,11.5,-,0.00,,Haze,300,2014-02-26 15:47:00
10:53 AM,8.1,-2.9,61,30.08,10.0,West,11.5,-,0.00,,Mostly Cloudy,270,2014-02-26 15:53:00
11:02 AM,8.6,-4.0,57,30.00,10.0,WNW,11.5,-,N/A,,Scattered Clouds,290,2014-02-26 16:02:00
11:53 AM,10.0,-7.1,46,30.06,10.0,West,11.5,-,N/A,,Partly Cloudy,270,2014-02-26 16:53:00
12:53 PM,10.9,-6.0,47,30.02,10.0,West,12.7,19.6,N/A,,Mostly Cloudy,270,2014-02-26 17:53:00
1:53 PM,10.9,-5.1,49,29.99,10.0,West,10.4,18.4,N/A,,Partly Cloudy,280,2014-02-26 18:53:00
2:53 PM,12.0,-4.0,49,29.97,10.0,WSW,8.1,-,N/A,,Mostly Cloudy,250,2014-02-26 19:53:00
3:53 PM,12.0,-2.9,51,29.95,10.0,WSW,13.8,-,N/A,,Mostly Cloudy,250,2014-02-26 20:53:00
4:53 PM,12.9,-2.0,51,29.92,10.0,West,8.1,-,N/A,,Partly Cloudy,270,2014-02-26 21:53:00
5:53 PM,10.9,-4.0,51,29.89,10.0,SW,4.6,-,N/A,,Clear,230,2014-02-26 22:53:00
6:53 PM,10.0,-4.0,53,29.88,10.0,SSW,4.6,-,N/A,,Clear,200,2014-02-26 23:53:00
7:53 PM,9.0,-4.0,56,29.86,10.0,SSW,4.6,-,N/A,,Clear,200,2014-02-27 00:53:00
8:53 PM,10.0,-2.9,56,29.82,10.0,SSW,5.8,-,N/A,,Mostly Cloudy,200,2014-02-27 01:53:00
9:53 PM,9.0,-2.0,61,29.80,10.0,South,5.8,-,N/A,,Overcast,190,2014-02-27 02:53:00
10:53 PM,9.0,-2.0,61,29.77,10.0,South,5.8,-,N/A,,Mostly Cloudy,190,2014-02-27 03:53:00
11:53 PM,10.9,-0.0,61,29.72,10.0,South,6.9,-,N/A,,Mostly Cloudy,180,2014-02-27 04:53:00